createdAt,value
2018-12-29T00:00:34.617Z,1012.13
2018-12-29T00:01:40.618Z,1012.06
2018-12-29T00:02:46.612Z,1012.03
2018-12-29T00:03:52.613Z,1012.06
2018-12-29T00:04:58.637Z,1012.05
2018-12-29T00:06:04.832Z,1012.04
2018-12-29T00:07:10.611Z,1012.05
2018-12-29T00:08:16.603Z,1012.05
2018-12-29T00:09:22.618Z,1012.05
2018-12-29T00:10:29.577Z,1011.97
2018-12-29T00:11:34.774Z,1011.94
2018-12-29T00:12:40.604Z,1011.95
2018-12-29T00:13:46.614Z,1011.96
2018-12-29T00:14:55.099Z,1011.93
2018-12-29T00:15:58.649Z,1011.96
2018-12-29T00:17:04.705Z,1012.00
2018-12-29T00:18:12.676Z,1012.03
2018-12-29T00:19:16.682Z,1011.99
2018-12-29T00:20:22.711Z,1011.96
2018-12-29T00:21:28.705Z,1011.95
2018-12-29T00:22:34.716Z,1011.95
2018-12-29T00:23:40.717Z,1012.01
2018-12-29T00:24:46.826Z,1012.00
2018-12-29T00:25:52.761Z,1012.01
2018-12-29T00:26:58.882Z,1012.05
2018-12-29T00:28:05.776Z,1012.04
2018-12-29T00:29:10.790Z,1012.03
2018-12-29T00:30:16.805Z,1011.99
2018-12-29T00:31:22.829Z,1011.90
2018-12-29T00:32:28.832Z,1011.87
2018-12-29T00:33:34.830Z,1011.90
2018-12-29T00:34:40.903Z,1011.90
2018-12-29T00:35:46.875Z,1011.93
2018-12-29T00:36:52.882Z,1011.96
2018-12-29T00:37:58.901Z,1011.93
2018-12-29T00:39:04.924Z,1011.90
2018-12-29T00:40:10.920Z,1011.86
2018-12-29T00:41:16.941Z,1011.88
2018-12-29T00:42:23.410Z,1011.98
2018-12-29T00:43:28.965Z,1012.02
2018-12-29T00:44:34.978Z,1012.06
2018-12-29T00:45:41.000Z,1012.02
2018-12-29T00:46:47.008Z,1011.99
2018-12-29T00:47:53.038Z,1012.05
2018-12-29T00:49:04.610Z,1012.01
2018-12-29T00:50:16.947Z,1011.98
